Time;durP1;ratioP1;P1;durP2;ratioP2;P2;SDS_P1;SDS_P2;PMS_P1;PMS_P2;Temp;Humidity;BMP_temperature;BMP_pressure;BME280_temperature;BME280_humidity;BME280_pressure;Samples;Min_cycle;Max_cycle;Signal;HPM_P1;HPM_P2
2023/03/19 00:02:22;;;;;;;9.38;7.75;;;10.50;89.00;;;;;;5019831;28;20030;-75
2023/03/19 00:04:47;;;;;;;11.50;7.90;;;10.50;89.10;;;;;;5013772;28;20037;-80
2023/03/19 00:07:15;;;;;;;10.05;7.50;;;10.50;89.10;;;;;;5008622;28;20036;-77
2023/03/19 00:09:41;;;;;;;10.93;8.25;;;10.40;89.10;;;;;;5016393;28;20055;-78
2023/03/19 00:12:07;;;;;;;11.02;7.65;;;10.40;89.10;;;;;;5026342;28;20483;-75
2023/03/19 00:14:33;;;;;;;10.75;8.15;;;10.40;89.20;;;;;;5019960;28;20025;-74
2023/03/19 00:17:00;;;;;;;11.35;7.57;;;10.40;89.20;;;;;;5022130;28;20558;-81
2023/03/19 00:19:25;;;;;;;10.32;8.55;;;10.30;89.30;;;;;;5024760;28;20096;-75
2023/03/19 00:21:51;;;;;;;11.10;8.05;;;10.30;89.30;;;;;;5022747;28;20029;-74
2023/03/19 00:24:17;;;;;;;10.30;7.50;;;10.20;89.20;;;;;;5022344;28;20115;-77
2023/03/19 00:26:43;;;;;;;11.82;8.25;;;10.20;89.10;;;;;;5035937;28;20398;-74
2023/03/19 00:29:09;;;;;;;11.95;8.80;;;10.20;89.20;;;;;;5022108;28;20026;-76
2023/03/19 00:31:35;;;;;;;10.95;8.23;;;10.10;89.20;;;;;;5022575;28;20055;-77
2023/03/19 00:34:02;;;;;;;11.75;8.13;;;10.10;89.20;;;;;;5022858;28;20033;-74
2023/03/19 00:36:28;;;;;;;13.02;8.93;;;10.10;89.20;;;;;;5019087;28;20278;-76
2023/03/19 00:38:55;;;;;;;12.25;8.13;;;10.10;89.10;;;;;;5025274;28;20373;-75
2023/03/19 00:41:20;;;;;;;11.13;7.28;;;10.00;89.20;;;;;;5035583;28;20718;-74
2023/03/19 00:43:47;;;;;;;10.75;7.53;;;10.00;89.20;;;;;;5022119;28;20025;-79
2023/03/19 00:46:13;;;;;;;11.35;7.43;;;10.00;89.30;;;;;;5025767;28;20055;-73
2023/03/19 00:48:39;;;;;;;13.85;7.72;;;9.90;89.20;;;;;;5021282;28;20037;-73
2023/03/19 00:51:07;;;;;;;10.38;7.13;;;9.90;89.10;;;;;;5018427;28;20044;-75
2023/03/19 00:53:40;;;;;;;12.23;7.68;;;9.90;89.20;;;;;;5020961;28;20013;-77
2023/03/19 00:56:07;;;;;;;11.50;7.45;;;9.80;89.10;;;;;;5024912;28;20099;-74
2023/03/19 00:58:33;;;;;;;12.35;7.78;;;9.70;89.20;;;;;;5025533;28;20038;-76
2023/03/19 01:00:59;;;;;;;11.82;7.80;;;9.60;89.20;;;;;;5028682;28;20087;-76
2023/03/19 01:03:25;;;;;;;12.10;8.00;;;9.70;89.30;;;;;;5034231;28;20766;-76
2023/03/19 01:05:51;;;;;;;11.90;8.00;;;9.60;89.30;;;;;;5027743;28;20047;-77
2023/03/19 01:08:18;;;;;;;12.48;8.10;;;9.60;89.40;;;;;;5035772;28;20148;-74
2023/03/19 01:10:44;;;;;;;12.80;8.27;;;9.60;89.40;;;;;;5029475;28;20021;-74
2023/03/19 01:13:10;;;;;;;12.00;8.43;;;9.60;89.40;;;;;;5033242;28;20021;-78
2023/03/19 01:15:38;;;;;;;11.10;7.82;;;9.60;89.50;;;;;;5023243;28;20087;-76
2023/03/19 01:18:05;;;;;;;11.65;8.07;;;9.60;89.60;;;;;;5028313;28;20061;-75
2023/03/19 01:20:31;;;;;;;13.82;7.68;;;9.60;89.70;;;;;;5027574;28;20499;-73
2023/03/19 01:22:57;;;;;;;11.70;8.00;;;9.60;89.60;;;;;;5033318;28;20500;-75
2023/03/19 01:25:22;;;;;;;10.85;7.65;;;9.50;89.40;;;;;;5029520;28;20029;-77
2023/03/19 01:27:49;;;;;;;12.05;7.85;;;9.50;89.50;;;;;;5031457;28;20045;-78
2023/03/19 01:30:15;;;;;;;12.77;8.10;;;9.40;89.50;;;;;;5025537;28;20034;-77
2023/03/19 01:32:41;;;;;;;11.23;8.07;;;9.40;89.50;;;;;;5023022;28;20052;-77
2023/03/19 01:35:08;;;;;;;12.48;8.45;;;9.40;89.60;;;;;;5024287;28;20044;-75
2023/03/19 01:37:34;;;;;;;14.93;9.05;;;9.30;89.60;;;;;;5026331;28;20051;-78
2023/03/19 01:40:00;;;;;;;11.40;8.30;;;9.30;89.60;;;;;;5022116;28;20480;-78
2023/03/19 01:42:26;;;;;;;13.10;8.85;;;9.20;89.70;;;;;;5026462;28;20542;-74
2023/03/19 01:44:52;;;;;;;12.07;7.40;;;9.20;89.50;;;;;;5028528;28;20029;-74
2023/03/19 01:47:32;;;;;;;12.18;8.60;;;9.10;89.60;;;;;;5010310;28;20616;-76
2023/03/19 01:49:58;;;;;;;11.25;8.07;;;9.20;89.70;;;;;;5027516;28;20174;-74
2023/03/19 01:52:28;;;;;;;13.20;8.48;;;9.10;89.70;;;;;;5024457;28;20495;-75
2023/03/19 01:54:56;;;;;;;12.00;8.25;;;9.10;89.60;;;;;;5026713;28;20034;-76
2023/03/19 01:57:23;;;;;;;10.90;8.02;;;9.10;89.70;;;;;;5024887;28;20071;-79
2023/03/19 01:59:55;;;;;;;11.98;8.38;;;9.10;89.70;;;;;;5021270;28;20095;-75
2023/03/19 02:02:29;;;;;;;11.38;8.07;;;9.10;89.80;;;;;;5022035;28;20044;-76
2023/03/19 02:05:24;;;;;;;12.93;8.05;;;9.10;89.70;;;;;;5005919;28;20403;-78
2023/03/19 02:07:50;;;;;;;12.40;7.90;;;9.00;89.70;;;;;;5008116;28;20037;-76
2023/03/19 02:10:17;;;;;;;12.43;8.10;;;9.00;89.80;;;;;;5010808;28;20057;-75
2023/03/19 02:12:43;;;;;;;13.90;7.53;;;9.00;89.80;;;;;;5021010;28;20022;-74
2023/03/19 02:15:10;;;;;;;11.98;8.43;;;8.90;89.70;;;;;;5021652;28;20026;-74
2023/03/19 02:17:36;;;;;;;12.45;7.82;;;8.90;89.80;;;;;;5019992;28;20052;-73
2023/03/19 02:20:30;;;;;;;11.98;8.40;;;8.90;89.90;;;;;;5018118;28;20048;-78
2023/03/19 02:23:33;;;;;;;12.77;8.05;;;8.80;89.90;;;;;;4986224;28;20049;-76
2023/03/19 02:26:11;;;;;;;15.10;7.88;;;8.80;89.90;;;;;;5022688;28;20112;-74
2023/03/19 02:28:42;;;;;;;11.52;7.68;;;8.80;89.90;;;;;;5006614;28;20449;-75
2023/03/19 02:31:09;;;;;;;14.65;7.53;;;8.80;90.00;;;;;;5017344;28;20140;-74
2023/03/19 02:33:35;;;;;;;13.73;7.47;;;8.80;90.00;;;;;;5023072;28;20067;-73
2023/03/19 02:36:04;;;;;;;14.75;7.65;;;8.80;89.90;;;;;;5024246;28;20041;-73
2023/03/19 02:38:32;;;;;;;14.13;8.13;;;8.70;89.90;;;;;;5025841;28;20036;-78
2023/03/19 02:41:08;;;;;;;13.02;7.45;;;8.70;89.90;;;;;;5019964;28;20424;-76
2023/03/19 02:43:37;;;;;;;14.70;8.10;;;8.70;90.00;;;;;;5024552;28;20029;-75
2023/03/19 02:46:05;;;;;;;15.48;8.40;;;8.70;89.80;;;;;;4977434;28;1301106;-75
2023/03/19 02:48:31;;;;;;;13.90;7.90;;;8.60;89.80;;;;;;5031498;28;20591;-75
2023/03/19 02:50:58;;;;;;;13.68;8.10;;;8.60;89.90;;;;;;5025783;28;20037;-74
2023/03/19 02:53:24;;;;;;;12.85;7.70;;;8.60;89.90;;;;;;5023105;28;20048;-74
2023/03/19 02:55:50;;;;;;;15.13;7.72;;;8.60;90.00;;;;;;5020589;28;20367;-77
2023/03/19 02:58:15;;;;;;;13.75;7.30;;;8.60;90.10;;;;;;5025041;28;20055;-74
2023/03/19 03:00:41;;;;;;;14.25;7.47;;;8.60;90.20;;;;;;5019353;28;20576;-76
2023/03/19 03:03:08;;;;;;;14.20;7.43;;;8.50;90.20;;;;;;5019877;28;20014;-77
2023/03/19 03:05:33;;;;;;;12.95;7.57;;;8.60;90.20;;;;;;5023485;28;20674;-75
2023/03/19 03:07:59;;;;;;;14.32;6.90;;;8.60;90.00;;;;;;5026895;28;20037;-73
2023/03/19 03:10:25;;;;;;;10.98;7.07;;;8.50;90.00;;;;;;5019813;28;20039;-75
2023/03/19 03:12:51;;;;;;;11.63;6.80;;;8.50;89.90;;;;;;5026566;28;20180;-74
2023/03/19 03:15:17;;;;;;;14.60;7.38;;;8.50;90.00;;;;;;5025447;28;20961;-79
2023/03/19 03:17:45;;;;;;;14.75;7.32;;;8.50;89.90;;;;;;5028719;28;20053;-73
2023/03/19 03:20:13;;;;;;;11.57;6.90;;;8.40;90.00;;;;;;5018005;28;20112;-74
2023/03/19 03:22:40;;;;;;;11.48;7.03;;;8.40;90.00;;;;;;5004837;28;20374;-76
2023/03/19 03:25:06;;;;;;;12.23;7.25;;;8.30;90.00;;;;;;5024216;28;20017;-76
2023/03/19 03:27:32;;;;;;;12.30;7.07;;;8.40;90.00;;;;;;5023448;28;20132;-73
2023/03/19 03:29:58;;;;;;;13.98;7.70;;;8.30;90.00;;;;;;5027418;28;20541;-77
2023/03/19 03:32:25;;;;;;;11.93;6.82;;;8.40;90.20;;;;;;5025030;28;20033;-73
2023/03/19 03:34:51;;;;;;;12.93;7.40;;;8.30;90.20;;;;;;5031406;28;20021;-73
2023/03/19 03:37:17;;;;;;;16.00;8.13;;;8.30;90.20;;;;;;5022974;28;20059;-76
2023/03/19 03:39:42;;;;;;;17.77;8.10;;;8.40;90.30;;;;;;5006443;28;20029;-72
2023/03/19 03:42:08;;;;;;;13.23;6.88;;;8.30;90.20;;;;;;5021627;28;20033;-74
2023/03/19 03:44:35;;;;;;;12.05;7.05;;;8.30;90.20;;;;;;5023586;28;20359;-72
2023/03/19 03:47:00;;;;;;;15.18;7.10;;;8.30;90.30;;;;;;5023029;28;20053;-72
2023/03/19 03:49:26;;;;;;;14.02;6.90;;;8.30;90.30;;;;;;5022079;28;20390;-78
2023/03/19 03:51:52;;;;;;;15.45;7.53;;;8.30;90.20;;;;;;5028024;28;20033;-73
2023/03/19 03:54:17;;;;;;;13.35;6.80;;;8.30;90.10;;;;;;5022327;28;20072;-76
2023/03/19 03:56:43;;;;;;;17.27;7.40;;;8.30;90.20;;;;;;5023683;28;20091;-78
2023/03/19 03:59:09;;;;;;;16.40;7.70;;;8.30;90.10;;;;;;5023430;28;20040;-73
2023/03/19 04:01:35;;;;;;;12.52;6.55;;;8.20;90.20;;;;;;5025136;28;20441;-73
2023/03/19 04:04:01;;;;;;;17.52;8.88;;;8.20;90.30;;;;;;5021967;28;20040;-73
2023/03/19 04:06:28;;;;;;;15.48;7.40;;;8.20;90.50;;;;;;5020540;28;20037;-75
2023/03/19 04:08:53;;;;;;;16.50;8.25;;;8.20;90.50;;;;;;5018221;28;20029;-74
2023/03/19 04:11:19;;;;;;;13.77;7.60;;;8.20;90.60;;;;;;5014345;28;20045;-74
2023/03/19 04:13:45;;;;;;;16.98;7.55;;;8.30;90.50;;;;;;5019501;28;20029;-74
2023/03/19 04:16:11;;;;;;;15.27;8.02;;;8.20;90.40;;;;;;5028119;28;20037;-77
2023/03/19 04:18:37;;;;;;;17.17;8.85;;;8.20;90.60;;;;;;5023557;28;20056;-72
2023/03/19 04:21:04;;;;;;;14.50;8.10;;;8.30;90.50;;;;;;5014230;28;20037;-73
2023/03/19 04:23:30;;;;;;;17.10;8.88;;;8.30;90.60;;;;;;5026558;28;20026;-75
2023/03/19 04:26:05;;;;;;;17.67;9.40;;;8.30;90.60;;;;;;5018774;28;20033;-73
2023/03/19 04:28:31;;;;;;;20.08;10.05;;;8.30;90.60;;;;;;5019513;28;20068;-72
2023/03/19 04:30:59;;;;;;;18.95;9.75;;;8.30;90.60;;;;;;5006074;28;20040;-78
2023/03/19 04:33:25;;;;;;;15.95;10.23;;;8.40;90.60;;;;;;5025790;28;20025;-73
2023/03/19 04:35:50;;;;;;;20.58;10.27;;;8.40;90.60;;;;;;5002556;28;20402;-74
2023/03/19 04:38:17;;;;;;;16.38;10.68;;;8.40;90.60;;;;;;5019019;28;20104;-76
2023/03/19 04:40:42;;;;;;;17.10;9.85;;;8.40;90.50;;;;;;5007605;28;20033;-73
2023/03/19 04:43:08;;;;;;;17.70;9.68;;;8.40;90.60;;;;;;5023454;28;20543;-77
2023/03/19 04:45:34;;;;;;;19.73;10.52;;;8.50;90.60;;;;;;5021001;28;20564;-73
2023/03/19 04:48:00;;;;;;;17.92;10.80;;;8.50;90.60;;;;;;5017380;28;20562;-79
2023/03/19 04:50:26;;;;;;;16.90;10.55;;;8.50;90.60;;;;;;5001962;28;20121;-77
2023/03/19 04:52:52;;;;;;;20.50;11.00;;;8.60;90.50;;;;;;5018350;28;20108;-76
2023/03/19 04:55:18;;;;;;;17.67;10.02;;;8.60;90.50;;;;;;5023432;28;20121;-73
2023/03/19 04:57:43;;;;;;;19.25;10.18;;;8.60;90.40;;;;;;5002825;28;20065;-76
2023/03/19 05:00:10;;;;;;;20.02;10.13;;;8.70;90.20;;;;;;5022914;28;20032;-72
2023/03/19 05:02:37;;;;;;;21.27;11.05;;;8.70;90.20;;;;;;5021981;28;20124;-76
2023/03/19 05:05:03;;;;;;;16.15;9.13;;;8.70;90.10;;;;;;5023696;28;20029;-75
2023/03/19 05:07:28;;;;;;;19.88;10.07;;;8.70;90.10;;;;;;5021261;28;20363;-73
2023/03/19 05:09:54;;;;;;;17.27;9.48;;;8.70;90.10;;;;;;5028507;28;20460;-78
2023/03/19 05:12:20;;;;;;;15.30;8.93;;;8.80;90.00;;;;;;5017480;28;20558;-74
2023/03/19 05:14:46;;;;;;;19.10;10.13;;;8.80;89.90;;;;;;5016981;28;20116;-74
2023/03/19 05:17:12;;;;;;;21.27;9.50;;;8.80;89.90;;;;;;5025664;28;20189;-75
2023/03/19 05:19:38;;;;;;;17.67;8.68;;;8.80;89.90;;;;;;5026434;28;20032;-73
2023/03/19 05:22:04;;;;;;;20.05;9.30;;;8.70;89.90;;;;;;5019583;28;20037;-76
2023/03/19 05:24:29;;;;;;;17.00;8.77;;;8.70;90.00;;;;;;5024590;28;20029;-75
2023/03/19 05:26:55;;;;;;;17.98;9.20;;;8.70;90.10;;;;;;5021942;28;20056;-74
2023/03/19 05:29:22;;;;;;;17.48;9.50;;;8.80;90.10;;;;;;5008111;28;20048;-75
2023/03/19 05:31:48;;;;;;;14.98;8.50;;;8.80;89.90;;;;;;5009065;28;20029;-79
2023/03/19 05:34:13;;;;;;;20.70;8.60;;;8.80;90.00;;;;;;5022446;28;20029;-74
2023/03/19 05:36:39;;;;;;;20.15;9.68;;;8.80;90.00;;;;;;5000517;28;20092;-76
2023/03/19 05:39:05;;;;;;;18.90;9.90;;;8.80;90.10;;;;;;5022360;28;20642;-74
2023/03/19 05:41:31;;;;;;;20.60;9.45;;;8.80;90.10;;;;;;5016779;28;20084;-78
2023/03/19 05:43:57;;;;;;;18.02;8.85;;;8.90;90.10;;;;;;5027792;28;20377;-75
2023/03/19 05:46:23;;;;;;;18.90;9.65;;;8.80;90.00;;;;;;5023832;28;20073;-73
2023/03/19 05:48:49;;;;;;;18.00;9.20;;;8.90;90.10;;;;;;5021228;28;20124;-78
2023/03/19 05:51:15;;;;;;;21.17;10.02;;;8.90;89.90;;;;;;5023949;28;20506;-73
2023/03/19 05:53:41;;;;;;;16.42;9.80;;;8.90;90.00;;;;;;5024894;28;20112;-74
2023/03/19 05:56:07;;;;;;;22.27;10.57;;;8.90;90.10;;;;;;5026764;28;20434;-74
2023/03/19 05:58:32;;;;;;;18.92;10.68;;;8.90;90.00;;;;;;5024872;28;20040;-75
2023/03/19 06:00:58;;;;;;;19.85;10.30;;;8.90;90.00;;;;;;5024232;28;20037;-75
2023/03/19 06:03:26;;;;;;;17.38;10.18;;;8.90;90.00;;;;;;5019109;28;20099;-75
2023/03/19 06:05:52;;;;;;;20.42;11.60;;;8.90;89.90;;;;;;5026969;28;20511;-73
2023/03/19 06:08:18;;;;;;;23.35;10.60;;;9.00;90.00;;;;;;5030423;28;20052;-78
2023/03/19 06:10:44;;;;;;;17.30;9.90;;;9.00;89.90;;;;;;5023120;28;20079;-74
2023/03/19 06:13:10;;;;;;;18.15;10.20;;;9.00;89.90;;;;;;5026386;28;20034;-77
2023/03/19 06:15:36;;;;;;;18.85;10.93;;;9.10;89.90;;;;;;5022641;28;20036;-79
2023/03/19 06:18:02;;;;;;;22.15;11.75;;;9.10;89.90;;;;;;5032716;28;20036;-74
2023/03/19 06:20:28;;;;;;;21.77;12.38;;;9.10;89.80;;;;;;5024054;28;20191;-74
2023/03/19 06:22:54;;;;;;;20.13;11.07;;;9.10;89.90;;;;;;5034063;28;20124;-74
2023/03/19 06:25:20;;;;;;;24.05;11.43;;;9.10;89.80;;;;;;5026894;28;20488;-74
2023/03/19 06:27:46;;;;;;;17.48;11.57;;;9.10;89.80;;;;;;5028087;28;20049;-79
2023/03/19 06:30:12;;;;;;;22.65;13.63;;;9.20;89.80;;;;;;5027112;28;20131;-76
2023/03/19 06:32:38;;;;;;;22.92;13.50;;;9.20;89.70;;;;;;5021206;28;20783;-73
2023/03/19 06:35:05;;;;;;;22.70;13.35;;;9.20;89.80;;;;;;5017763;28;20080;-77
2023/03/19 06:37:31;;;;;;;23.38;13.55;;;9.20;89.80;;;;;;5029742;28;20521;-74
2023/03/19 06:39:57;;;;;;;24.08;13.15;;;9.20;89.90;;;;;;5023895;28;20025;-73
2023/03/19 06:42:23;;;;;;;24.60;14.20;;;9.30;89.80;;;;;;5023618;28;20124;-73
2023/03/19 06:44:49;;;;;;;26.05;13.55;;;9.30;89.70;;;;;;5024123;28;20100;-78
2023/03/19 06:47:15;;;;;;;20.38;12.15;;;9.40;89.80;;;;;;5037308;28;20064;-77
2023/03/19 06:49:40;;;;;;;24.90;13.35;;;9.40;89.70;;;;;;5022532;28;20021;-78
2023/03/19 06:52:06;;;;;;;25.92;13.02;;;9.40;89.60;;;;;;5023200;28;20034;-73
2023/03/19 06:54:32;;;;;;;24.23;12.90;;;9.40;89.50;;;;;;5019171;28;20111;-78
2023/03/19 06:56:58;;;;;;;27.58;13.77;;;9.40;89.40;;;;;;5025505;28;20041;-73
2023/03/19 06:59:24;;;;;;;24.30;13.32;;;9.50;89.40;;;;;;5027609;28;20029;-74
2023/03/19 07:01:51;;;;;;;25.00;14.43;;;9.60;89.40;;;;;;5018421;28;20462;-75
2023/03/19 07:04:17;;;;;;;24.65;15.85;;;9.60;89.40;;;;;;5023929;28;20025;-74
2023/03/19 07:06:42;;;;;;;28.45;15.88;;;9.60;89.40;;;;;;5024626;28;20048;-75
2023/03/19 07:09:08;;;;;;;24.80;14.77;;;9.60;89.40;;;;;;5006505;28;20103;-75
2023/03/19 07:11:34;;;;;;;27.10;15.30;;;9.70;89.30;;;;;;5022621;28;20449;-77
2023/03/19 07:13:59;;;;;;;26.17;16.27;;;9.80;89.30;;;;;;5005199;28;20038;-78
2023/03/19 07:16:25;;;;;;;28.63;17.80;;;9.80;89.10;;;;;;5022257;28;20034;-74
2023/03/19 07:18:51;;;;;;;27.80;17.48;;;9.80;89.10;;;;;;5031350;28;20124;-75
2023/03/19 07:21:16;;;;;;;31.90;18.92;;;9.90;89.00;;;;;;5024113;28;20029;-76
2023/03/19 07:23:42;;;;;;;33.03;18.08;;;9.90;89.00;;;;;;5019629;28;20052;-74
2023/03/19 07:26:08;;;;;;;31.17;19.15;;;9.90;89.00;;;;;;5022285;28;20049;-76
2023/03/19 07:28:33;;;;;;;28.38;17.50;;;10.00;89.10;;;;;;5033039;28;20038;-73
2023/03/19 07:30:59;;;;;;;29.33;17.83;;;10.00;89.00;;;;;;5022248;28;20055;-75
2023/03/19 07:33:25;;;;;;;33.00;17.83;;;10.00;89.00;;;;;;5023837;28;20373;-75
2023/03/19 07:35:50;;;;;;;32.08;17.00;;;10.10;89.00;;;;;;5023972;28;20548;-74
2023/03/19 07:38:16;;;;;;;31.95;17.38;;;10.10;88.80;;;;;;5019869;28;20386;-75
2023/03/19 07:40:42;;;;;;;27.05;16.30;;;10.10;88.70;;;;;;5022732;28;20147;-74
2023/03/19 07:43:08;;;;;;;26.23;16.15;;;10.10;88.80;;;;;;5023174;28;20109;-73
2023/03/19 07:45:33;;;;;;;25.00;16.15;;;10.10;88.80;;;;;;5015690;28;20473;-76
2023/03/19 07:48:02;;;;;;;24.02;14.55;;;10.10;88.80;;;;;;5017391;28;20025;-73
2023/03/19 07:50:29;;;;;;;25.08;14.65;;;10.20;88.80;;;;;;5022951;28;20152;-75
2023/03/19 07:52:55;;;;;;;23.20;14.07;;;10.30;88.50;;;;;;5021102;28;20029;-77
2023/03/19 07:55:21;;;;;;;23.48;14.10;;;10.50;88.40;;;;;;5020680;28;20045;-75
2023/03/19 07:57:47;;;;;;;23.45;13.95;;;10.60;88.00;;;;;;5026782;28;20091;-73
2023/03/19 08:00:13;;;;;;;25.50;13.00;;;10.70;87.60;;;;;;5001058;28;20022;-73
2023/03/19 08:02:39;;;;;;;19.75;12.45;;;10.80;87.40;;;;;;5022608;28;20229;-74
2023/03/19 08:05:05;;;;;;;22.15;13.68;;;10.90;87.30;;;;;;5025760;28;20087;-76
2023/03/19 08:07:31;;;;;;;23.23;13.15;;;11.00;86.80;;;;;;5022543;28;20370;-74
2023/03/19 08:09:57;;;;;;;26.33;14.32;;;10.90;86.40;;;;;;5022495;28;20040;-73
2023/03/19 08:12:26;;;;;;;24.20;13.13;;;10.90;86.40;;;;;;5016899;28;20032;-74
2023/03/19 08:14:52;;;;;;;22.85;14.15;;;11.00;86.30;;;;;;5021940;28;20493;-74
2023/03/19 08:17:17;;;;;;;24.25;13.65;;;11.10;86.10;;;;;;5023034;28;20045;-74
2023/03/19 08:19:43;;;;;;;25.50;14.23;;;11.10;86.10;;;;;;5021579;28;20104;-74
2023/03/19 08:22:09;;;;;;;28.00;14.10;;;11.10;85.70;;;;;;5024828;28;20045;-74
2023/03/19 08:24:35;;;;;;;21.38;13.88;;;11.20;85.60;;;;;;5019653;28;20029;-74
2023/03/19 08:27:00;;;;;;;24.95;14.20;;;11.20;85.40;;;;;;5019846;28;20174;-74
2023/03/19 08:29:26;;;;;;;26.75;14.98;;;11.20;85.40;;;;;;5020976;28;20350;-74
2023/03/19 08:31:53;;;;;;;22.73;15.00;;;11.20;85.30;;;;;;5018823;28;20049;-74
2023/03/19 08:34:19;;;;;;;26.58;14.50;;;11.10;85.50;;;;;;5024766;28;20148;-75
2023/03/19 08:36:45;;;;;;;28.85;15.43;;;11.10;85.70;;;;;;5020073;28;20124;-74
2023/03/19 08:39:11;;;;;;;24.27;15.35;;;11.30;85.50;;;;;;5027270;28;20103;-74
2023/03/19 08:41:36;;;;;;;25.13;15.32;;;11.30;85.30;;;;;;5017761;28;20130;-73
2023/03/19 08:44:02;;;;;;;24.63;17.42;;;11.20;85.40;;;;;;5027974;28;20037;-74
2023/03/19 08:46:28;;;;;;;27.17;18.05;;;11.30;85.70;;;;;;5021848;28;20067;-74
2023/03/19 08:48:54;;;;;;;29.05;18.25;;;11.10;85.70;;;;;;5025327;28;20405;-74
2023/03/19 08:51:20;;;;;;;31.75;18.70;;;11.10;85.70;;;;;;5020652;28;20033;-74
2023/03/19 08:53:46;;;;;;;30.15;18.98;;;11.00;86.40;;;;;;5020876;28;20104;-74
2023/03/19 08:56:12;;;;;;;32.63;19.58;;;10.90;86.60;;;;;;5012878;28;20080;-74
2023/03/19 08:58:38;;;;;;;33.35;19.73;;;10.90;86.90;;;;;;5028241;28;20032;-74
2023/03/19 09:01:09;;;;;;;30.95;19.42;;;10.80;87.20;;;;;;5022870;28;20228;-74
2023/03/19 09:03:36;;;;;;;33.05;19.77;;;10.80;87.60;;;;;;5020718;28;20101;-74
2023/03/19 09:06:05;;;;;;;32.42;19.48;;;10.70;87.90;;;;;;5026351;28;20029;-75
2023/03/19 09:08:31;;;;;;;34.20;20.67;;;10.60;88.10;;;;;;5020808;28;20033;-73
2023/03/19 09:10:57;;;;;;;30.45;19.45;;;10.60;88.40;;;;;;5020532;28;20052;-74
2023/03/19 09:13:24;;;;;;;32.80;20.23;;;10.60;88.80;;;;;;5026224;28;20050;-73
2023/03/19 09:15:50;;;;;;;33.75;20.52;;;10.50;89.10;;;;;;5015872;28;20411;-74
2023/03/19 09:18:16;;;;;;;33.20;20.05;;;10.50;89.40;;;;;;5018499;28;20408;-74
2023/03/19 09:20:42;;;;;;;28.13;18.02;;;10.40;89.50;;;;;;5027704;28;20108;-73
2023/03/19 09:23:08;;;;;;;17.50;12.23;;;10.30;89.50;;;;;;5019765;28;20120;-73
2023/03/19 09:25:34;;;;;;;17.70;11.52;;;10.00;89.50;;;;;;5022274;28;20032;-73
2023/03/19 09:27:59;;;;;;;18.20;11.85;;;9.80;90.00;;;;;;5022901;28;20099;-73
2023/03/19 09:30:25;;;;;;;19.98;11.30;;;9.90;90.20;;;;;;5031598;28;20667;-74
2023/03/19 09:32:51;;;;;;;20.70;11.65;;;10.00;90.10;;;;;;5025405;28;20037;-73
2023/03/19 09:35:17;;;;;;;18.00;10.63;;;10.20;90.40;;;;;;5024890;28;20440;-73
2023/03/19 09:37:42;;;;;;;19.38;11.32;;;10.40;89.80;;;;;;5025425;28;20037;-73
2023/03/19 09:40:23;;;;;;;18.45;11.85;;;10.70;88.90;;;;;;5025556;28;20034;-73
2023/03/19 09:43:16;;;;;;;23.17;12.63;;;10.80;88.30;;;;;;5024393;28;20045;-73
2023/03/19 09:45:45;;;;;;;15.77;9.77;;;10.80;88.00;;;;;;5023187;28;20454;-73
2023/03/19 09:48:19;;;;;;;19.70;8.05;;;10.80;87.10;;;;;;5005543;28;20037;-73
2023/03/19 09:50:47;;;;;;;15.48;9.60;;;10.60;86.70;;;;;;5010559;28;20377;-74
2023/03/19 09:53:43;;;;;;;15.98;9.32;;;10.60;87.40;;;;;;5026582;28;20095;-74
2023/03/19 09:56:13;;;;;;;16.77;8.88;;;10.80;87.10;;;;;;5016302;28;20047;-73
2023/03/19 09:58:39;;;;;;;17.73;9.07;;;11.00;87.00;;;;;;5021856;28;20037;-74
2023/03/19 10:01:05;;;;;;;14.68;8.35;;;11.10;86.10;;;;;;5024036;28;20123;-73
2023/03/19 10:04:03;;;;;;;13.30;8.82;;;11.30;85.50;;;;;;5023141;28;20465;-73
2023/03/19 10:06:39;;;;;;;16.80;9.52;;;11.40;84.20;;;;;;5018103;28;20041;-74
2023/03/19 10:09:23;;;;;;;13.95;8.63;;;11.50;83.80;;;;;;5023745;28;20040;-75
2023/03/19 10:12:01;;;;;;;12.38;7.80;;;11.60;83.60;;;;;;5025778;28;20632;-74
2023/03/19 10:14:47;;;;;;;11.18;7.32;;;11.60;83.20;;;;;;5042678;28;20366;-75
2023/03/19 10:17:21;;;;;;;13.45;7.57;;;11.60;82.80;;;;;;5016951;28;20127;-75
2023/03/19 10:19:52;;;;;;;13.23;7.25;;;11.60;82.40;;;;;;5026227;28;20029;-74
2023/03/19 10:22:26;;;;;;;10.95;7.63;;;12.00;83.30;;;;;;5027371;28;20061;-73
2023/03/19 10:24:55;;;;;;;10.88;7.10;;;12.50;82.10;;;;;;5025349;28;20057;-74
2023/03/19 10:27:24;;;;;;;11.98;7.07;;;12.40;80.90;;;;;;5033385;28;20663;-73
2023/03/19 10:29:51;;;;;;;9.50;6.60;;;12.60;80.50;;;;;;5031046;28;20036;-75
2023/03/19 10:32:33;;;;;;;13.07;7.05;;;12.40;80.70;;;;;;5026165;28;20029;-75
2023/03/19 10:35:04;;;;;;;10.70;7.47;;;12.40;81.00;;;;;;5028548;28;20026;-76
2023/03/19 10:37:30;;;;;;;11.15;7.45;;;12.10;81.00;;;;;;5020290;28;20038;-78
2023/03/19 10:39:58;;;;;;;9.90;6.63;;;11.90;81.30;;;;;;5025077;28;20036;-74
2023/03/19 10:42:47;;;;;;;10.40;7.20;;;11.90;81.80;;;;;;5006877;28;20037;-74
2023/03/19 10:45:32;;;;;;;12.25;7.25;;;11.80;81.40;;;;;;5024394;28;20064;-73
2023/03/19 10:47:59;;;;;;;10.73;7.32;;;12.00;82.10;;;;;;5017168;28;20056;-73
2023/03/19 10:50:33;;;;;;;11.73;7.00;;;11.80;81.80;;;;;;5022197;28;20032;-74
2023/03/19 10:53:14;;;;;;;10.63;7.57;;;11.70;81.60;;;;;;5021158;28;20049;-73
2023/03/19 10:55:56;;;;;;;11.15;6.93;;;11.70;82.00;;;;;;5022345;28;20029;-73
2023/03/19 10:58:25;;;;;;;11.82;7.88;;;11.70;81.70;;;;;;5021559;28;20068;-74
2023/03/19 11:01:11;;;;;;;12.50;7.65;;;11.60;82.00;;;;;;5032924;28;20033;-73
2023/03/19 11:03:38;;;;;;;12.90;8.35;;;11.50;82.10;;;;;;5022631;28;20017;-75
2023/03/19 11:06:16;;;;;;;13.65;7.82;;;11.40;83.10;;;;;;5022782;28;20578;-77
2023/03/19 11:08:42;;;;;;;13.00;7.45;;;11.30;83.80;;;;;;5025825;28;20429;-76
2023/03/19 11:11:31;;;;;;;13.98;8.30;;;11.10;83.00;;;;;;5020155;28;20080;-75
2023/03/19 11:13:58;;;;;;;11.25;6.60;;;11.10;83.20;;;;;;5025768;28;20432;-74
2023/03/19 11:16:23;;;;;;;11.38;6.80;;;11.00;82.90;;;;;;5018289;28;20030;-75
2023/03/19 11:18:49;;;;;;;11.05;6.28;;;11.00;83.00;;;;;;5027049;28;20083;-77
2023/03/19 11:21:27;;;;;;;10.88;6.15;;;10.90;82.50;;;;;;5024446;28;20042;-75
2023/03/19 11:24:00;;;;;;;15.07;6.40;;;10.90;82.30;;;;;;5020417;28;20037;-74
2023/03/19 11:26:27;;;;;;;10.80;6.55;;;11.00;83.00;;;;;;5007368;28;20068;-76
2023/03/19 11:29:00;;;;;;;12.80;5.80;;;11.10;82.80;;;;;;5022199;28;20037;-75
2023/03/19 11:31:49;;;;;;;10.07;5.13;;;11.10;82.90;;;;;;5021633;28;20076;-74
2023/03/19 11:34:33;;;;;;;9.93;4.97;;;11.10;82.40;;;;;;5014752;28;20021;-75
2023/03/19 11:37:27;;;;;;;8.82;4.65;;;11.10;82.10;;;;;;5021362;28;20049;-75
2023/03/19 11:40:09;;;;;;;10.25;4.82;;;11.10;82.10;;;;;;5016959;28;20057;-76
2023/03/19 11:42:38;;;;;;;8.98;5.15;;;11.10;81.60;;;;;;5027911;28;20041;-74
2023/03/19 11:45:09;;;;;;;9.27;4.40;;;11.30;81.10;;;;;;5023115;28;20526;-74
2023/03/19 11:47:46;;;;;;;7.15;4.03;;;11.30;80.70;;;;;;5022161;28;20065;-74
2023/03/19 11:50:18;;;;;;;8.07;3.72;;;11.20;81.30;;;;;;5024616;28;20026;-76
2023/03/19 11:53:00;;;;;;;9.90;4.30;;;11.10;81.50;;;;;;5020038;28;20547;-76
2023/03/19 11:55:41;;;;;;;12.45;3.92;;;11.00;82.00;;;;;;5022551;28;20537;-76
2023/03/19 11:58:39;;;;;;;10.10;4.10;;;10.80;82.60;;;;;;5021980;28;20064;-75
2023/03/19 12:01:30;;;;;;;8.43;4.18;;;10.90;83.10;;;;;;5015667;28;20038;-74
2023/03/19 12:04:42;;;;;;;8.82;4.65;;;10.90;83.00;;;;;;5012535;28;20069;-74
2023/03/19 12:07:27;;;;;;;10.30;4.22;;;10.90;82.60;;;;;;5018822;28;20140;-74
2023/03/19 12:10:12;;;;;;;9.52;4.25;;;10.90;82.10;;;;;;5025112;28;20148;-73
2023/03/19 12:13:01;;;;;;;8.82;4.53;;;11.10;82.20;;;;;;5024568;28;20124;-73
2023/03/19 12:16:19;;;;;;;8.30;4.22;;;11.20;82.20;;;;;;5023065;28;20125;-74
2023/03/19 12:18:51;;;;;;;11.85;5.57;;;11.10;81.80;;;;;;4996305;28;20076;-74
2023/03/19 12:21:28;;;;;;;12.88;7.70;;;11.10;81.80;;;;;;5020743;28;20076;-73
2023/03/19 12:24:14;;;;;;;15.40;7.60;;;11.10;82.00;;;;;;5022908;28;20029;-75
2023/03/19 12:26:43;;;;;;;16.48;7.55;;;11.30;81.80;;;;;;5027225;28;20041;-76
2023/03/19 12:29:15;;;;;;;16.77;8.23;;;11.30;81.70;;;;;;5033211;28;20120;-75
2023/03/19 12:31:44;;;;;;;12.23;6.35;;;11.10;82.10;;;;;;5024891;28;20038;-74
2023/03/19 12:34:25;;;;;;;12.00;5.88;;;11.10;82.60;;;;;;5031823;28;20117;-74
2023/03/19 12:37:20;;;;;;;12.13;5.70;;;11.10;82.90;;;;;;5023757;28;20049;-74
2023/03/19 12:40:11;;;;;;;11.48;5.50;;;11.00;82.50;;;;;;5000172;28;20452;-73
2023/03/19 12:42:39;;;;;;;12.27;5.63;;;11.00;82.60;;;;;;5022023;28;20033;-74
2023/03/19 12:45:25;;;;;;;14.15;5.72;;;11.10;82.60;;;;;;5021508;28;20631;-75
2023/03/19 12:47:59;;;;;;;16.10;6.20;;;11.10;81.60;;;;;;5020723;28;20085;-74
2023/03/19 12:50:26;;;;;;;13.63;6.65;;;10.90;82.20;;;;;;5025357;28;20084;-74